sensor_id;sensor_type;location;lat;lon;timestamp;P1;durP1;ratioP1;P2;durP2;ratioP2
23474;SDS011;11910;52.086;21.066;2023-12-28T00:00:29;49.40;;;27.85;;
23474;SDS011;11910;52.086;21.066;2023-12-28T00:02:55;50.92;;;25.75;;
23474;SDS011;11910;52.086;21.066;2023-12-28T00:05:21;48.83;;;27.08;;
23474;SDS011;11910;52.086;21.066;2023-12-28T00:07:46;43.85;;;25.52;;
23474;SDS011;11910;52.086;21.066;2023-12-28T00:10:12;49.13;;;27.80;;
23474;SDS011;11910;52.086;21.066;2023-12-28T00:12:38;44.58;;;26.63;;
23474;SDS011;11910;52.086;21.066;2023-12-28T00:15:03;45.35;;;26.48;;
23474;SDS011;11910;52.086;21.066;2023-12-28T00:17:29;43.33;;;24.98;;
23474;SDS011;11910;52.086;21.066;2023-12-28T00:19:55;50.13;;;27.35;;
23474;SDS011;11910;52.086;21.066;2023-12-28T00:22:20;42.35;;;25.70;;
23474;SDS011;11910;52.086;21.066;2023-12-28T00:24:46;53.67;;;29.02;;
23474;SDS011;11910;52.086;21.066;2023-12-28T00:27:11;54.80;;;29.35;;
23474;SDS011;11910;52.086;21.066;2023-12-28T00:29:37;47.83;;;26.92;;
23474;SDS011;11910;52.086;21.066;2023-12-28T00:32:06;45.60;;;25.15;;
23474;SDS011;11910;52.086;21.066;2023-12-28T00:34:32;45.20;;;24.83;;
23474;SDS011;11910;52.086;21.066;2023-12-28T00:36:58;46.97;;;25.25;;
23474;SDS011;11910;52.086;21.066;2023-12-28T00:39:23;51.40;;;26.45;;
23474;SDS011;11910;52.086;21.066;2023-12-28T00:41:49;49.42;;;27.65;;
23474;SDS011;11910;52.086;21.066;2023-12-28T00:44:14;49.85;;;24.17;;
23474;SDS011;11910;52.086;21.066;2023-12-28T00:46:40;42.42;;;23.73;;
23474;SDS011;11910;52.086;21.066;2023-12-28T00:49:06;42.40;;;22.15;;
23474;SDS011;11910;52.086;21.066;2023-12-28T00:51:31;41.03;;;22.63;;
23474;SDS011;11910;52.086;21.066;2023-12-28T00:53:57;41.80;;;21.77;;
23474;SDS011;11910;52.086;21.066;2023-12-28T00:56:23;39.40;;;21.70;;
23474;SDS011;11910;52.086;21.066;2023-12-28T00:58:48;36.92;;;19.70;;
23474;SDS011;11910;52.086;21.066;2023-12-28T01:01:14;39.22;;;21.23;;
23474;SDS011;11910;52.086;21.066;2023-12-28T01:03:40;43.42;;;22.92;;
23474;SDS011;11910;52.086;21.066;2023-12-28T01:06:05;41.03;;;22.77;;
23474;SDS011;11910;52.086;21.066;2023-12-28T01:08:31;43.85;;;22.45;;
23474;SDS011;11910;52.086;21.066;2023-12-28T01:10:58;38.60;;;21.05;;
23474;SDS011;11910;52.086;21.066;2023-12-28T01:13:24;37.35;;;22.70;;
23474;SDS011;11910;52.086;21.066;2023-12-28T01:15:50;40.20;;;22.17;;
23474;SDS011;11910;52.086;21.066;2023-12-28T01:18:15;42.70;;;21.33;;
23474;SDS011;11910;52.086;21.066;2023-12-28T01:20:41;36.88;;;19.50;;
23474;SDS011;11910;52.086;21.066;2023-12-28T01:23:07;40.47;;;21.70;;
23474;SDS011;11910;52.086;21.066;2023-12-28T01:25:32;37.33;;;20.50;;
23474;SDS011;11910;52.086;21.066;2023-12-28T01:27:58;37.38;;;20.10;;
23474;SDS011;11910;52.086;21.066;2023-12-28T01:30:23;41.70;;;20.70;;
23474;SDS011;11910;52.086;21.066;2023-12-28T01:32:49;40.42;;;20.38;;
23474;SDS011;11910;52.086;21.066;2023-12-28T01:35:14;40.63;;;21.30;;
23474;SDS011;11910;52.086;21.066;2023-12-28T01:37:40;40.30;;;22.35;;
23474;SDS011;11910;52.086;21.066;2023-12-28T01:40:06;40.30;;;21.95;;
23474;SDS011;11910;52.086;21.066;2023-12-28T01:42:32;42.05;;;22.52;;
23474;SDS011;11910;52.086;21.066;2023-12-28T01:44:57;39.13;;;21.67;;
23474;SDS011;11910;52.086;21.066;2023-12-28T01:47:27;38.33;;;21.50;;
23474;SDS011;11910;52.086;21.066;2023-12-28T01:49:54;42.88;;;23.90;;
23474;SDS011;11910;52.086;21.066;2023-12-28T01:52:20;39.35;;;22.25;;
23474;SDS011;11910;52.086;21.066;2023-12-28T01:54:46;38.15;;;21.23;;
23474;SDS011;11910;52.086;21.066;2023-12-28T01:57:13;37.75;;;20.85;;
23474;SDS011;11910;52.086;21.066;2023-12-28T01:59:39;38.97;;;20.52;;
23474;SDS011;11910;52.086;21.066;2023-12-28T02:02:06;39.10;;;20.33;;
23474;SDS011;11910;52.086;21.066;2023-12-28T02:04:31;36.35;;;20.02;;
23474;SDS011;11910;52.086;21.066;2023-12-28T02:06:59;38.45;;;20.45;;
23474;SDS011;11910;52.086;21.066;2023-12-28T02:09:25;36.53;;;19.40;;
23474;SDS011;11910;52.086;21.066;2023-12-28T02:11:51;34.00;;;18.73;;
23474;SDS011;11910;52.086;21.066;2023-12-28T02:14:17;40.25;;;20.40;;
23474;SDS011;11910;52.086;21.066;2023-12-28T02:16:46;38.55;;;18.80;;
23474;SDS011;11910;52.086;21.066;2023-12-28T02:19:57;34.83;;;18.80;;
23474;SDS011;11910;52.086;21.066;2023-12-28T02:22:13;37.83;;;18.65;;
23474;SDS011;11910;52.086;21.066;2023-12-28T02:27:27;34.67;;;18.20;;
23474;SDS011;11910;52.086;21.066;2023-12-28T02:29:52;34.90;;;17.20;;
23474;SDS011;11910;52.086;21.066;2023-12-28T02:32:20;32.35;;;17.10;;
23474;SDS011;11910;52.086;21.066;2023-12-28T02:34:53;34.92;;;17.27;;
23474;SDS011;11910;52.086;21.066;2023-12-28T02:37:24;33.00;;;16.77;;
23474;SDS011;11910;52.086;21.066;2023-12-28T02:39:50;30.98;;;17.65;;
23474;SDS011;11910;52.086;21.066;2023-12-28T02:42:18;30.33;;;15.43;;
23474;SDS011;11910;52.086;21.066;2023-12-28T02:44:44;29.70;;;16.35;;
23474;SDS011;11910;52.086;21.066;2023-12-28T02:47:09;27.90;;;16.38;;
23474;SDS011;11910;52.086;21.066;2023-12-28T02:49:35;29.15;;;15.85;;
23474;SDS011;11910;52.086;21.066;2023-12-28T02:52:00;29.35;;;16.88;;
23474;SDS011;11910;52.086;21.066;2023-12-28T02:54:26;32.95;;;17.40;;
23474;SDS011;11910;52.086;21.066;2023-12-28T02:56:52;30.30;;;16.55;;
23474;SDS011;11910;52.086;21.066;2023-12-28T02:59:17;29.17;;;15.25;;
23474;SDS011;11910;52.086;21.066;2023-12-28T03:01:43;29.00;;;16.13;;
23474;SDS011;11910;52.086;21.066;2023-12-28T03:04:08;32.38;;;15.95;;
23474;SDS011;11910;52.086;21.066;2023-12-28T03:06:34;30.25;;;15.52;;
23474;SDS011;11910;52.086;21.066;2023-12-28T03:09:00;28.40;;;15.30;;
23474;SDS011;11910;52.086;21.066;2023-12-28T03:11:26;29.23;;;15.32;;
23474;SDS011;11910;52.086;21.066;2023-12-28T03:13:51;28.42;;;14.85;;
23474;SDS011;11910;52.086;21.066;2023-12-28T03:16:17;32.08;;;16.08;;
23474;SDS011;11910;52.086;21.066;2023-12-28T03:18:42;29.50;;;15.38;;
23474;SDS011;11910;52.086;21.066;2023-12-28T03:21:08;31.45;;;15.05;;
23474;SDS011;11910;52.086;21.066;2023-12-28T03:23:33;28.65;;;14.75;;
23474;SDS011;11910;52.086;21.066;2023-12-28T03:26:00;25.70;;;14.98;;
23474;SDS011;11910;52.086;21.066;2023-12-28T03:28:25;29.17;;;15.20;;
23474;SDS011;11910;52.086;21.066;2023-12-28T03:30:51;25.55;;;14.70;;
23474;SDS011;11910;52.086;21.066;2023-12-28T03:33:17;28.08;;;14.38;;
23474;SDS011;11910;52.086;21.066;2023-12-28T03:35:43;28.40;;;15.30;;
23474;SDS011;11910;52.086;21.066;2023-12-28T03:38:08;28.85;;;14.85;;
23474;SDS011;11910;52.086;21.066;2023-12-28T03:40:34;30.70;;;14.63;;
23474;SDS011;11910;52.086;21.066;2023-12-28T03:43:00;29.90;;;14.35;;
23474;SDS011;11910;52.086;21.066;2023-12-28T03:45:25;27.88;;;14.05;;
23474;SDS011;11910;52.086;21.066;2023-12-28T03:47:51;31.67;;;14.75;;
23474;SDS011;11910;52.086;21.066;2023-12-28T03:50:16;28.40;;;14.70;;
23474;SDS011;11910;52.086;21.066;2023-12-28T03:52:42;26.63;;;14.30;;
23474;SDS011;11910;52.086;21.066;2023-12-28T03:55:07;27.67;;;14.48;;
23474;SDS011;11910;52.086;21.066;2023-12-28T03:57:33;29.27;;;14.55;;
23474;SDS011;11910;52.086;21.066;2023-12-28T03:59:59;26.23;;;13.68;;
23474;SDS011;11910;52.086;21.066;2023-12-28T04:02:24;26.85;;;14.38;;
23474;SDS011;11910;52.086;21.066;2023-12-28T04:04:52;25.17;;;13.90;;
23474;SDS011;11910;52.086;21.066;2023-12-28T04:07:18;27.65;;;13.30;;
23474;SDS011;11910;52.086;21.066;2023-12-28T04:09:43;25.42;;;13.75;;
23474;SDS011;11910;52.086;21.066;2023-12-28T04:12:09;25.58;;;13.75;;
23474;SDS011;11910;52.086;21.066;2023-12-28T04:14:35;26.38;;;13.60;;
23474;SDS011;11910;52.086;21.066;2023-12-28T04:17:00;25.42;;;13.90;;
23474;SDS011;11910;52.086;21.066;2023-12-28T04:19:26;26.98;;;13.77;;
23474;SDS011;11910;52.086;21.066;2023-12-28T04:21:51;25.80;;;14.57;;
23474;SDS011;11910;52.086;21.066;2023-12-28T04:24:17;27.45;;;14.10;;
23474;SDS011;11910;52.086;21.066;2023-12-28T04:26:42;27.75;;;13.88;;
23474;SDS011;11910;52.086;21.066;2023-12-28T04:29:08;26.92;;;13.98;;
23474;SDS011;11910;52.086;21.066;2023-12-28T04:31:33;26.20;;;13.52;;
23474;SDS011;11910;52.086;21.066;2023-12-28T04:34:05;25.95;;;13.93;;
23474;SDS011;11910;52.086;21.066;2023-12-28T04:36:31;27.98;;;13.98;;
23474;SDS011;11910;52.086;21.066;2023-12-28T04:38:56;26.17;;;13.90;;
23474;SDS011;11910;52.086;21.066;2023-12-28T04:41:22;28.17;;;14.35;;
23474;SDS011;11910;52.086;21.066;2023-12-28T04:43:47;28.15;;;13.23;;
23474;SDS011;11910;52.086;21.066;2023-12-28T04:46:13;30.73;;;13.90;;
23474;SDS011;11910;52.086;21.066;2023-12-28T04:48:38;29.60;;;14.32;;
23474;SDS011;11910;52.086;21.066;2023-12-28T04:51:04;27.33;;;14.18;;
23474;SDS011;11910;52.086;21.066;2023-12-28T04:53:30;31.90;;;13.88;;
23474;SDS011;11910;52.086;21.066;2023-12-28T04:55:55;27.40;;;13.88;;
23474;SDS011;11910;52.086;21.066;2023-12-28T04:58:21;25.92;;;14.38;;
23474;SDS011;11910;52.086;21.066;2023-12-28T05:00:47;27.73;;;14.27;;
23474;SDS011;11910;52.086;21.066;2023-12-28T05:03:12;29.83;;;15.07;;
23474;SDS011;11910;52.086;21.066;2023-12-28T05:05:38;29.13;;;14.45;;
23474;SDS011;11910;52.086;21.066;2023-12-28T05:08:03;27.60;;;14.07;;
23474;SDS011;11910;52.086;21.066;2023-12-28T05:10:29;28.70;;;13.98;;
23474;SDS011;11910;52.086;21.066;2023-12-28T05:12:55;29.02;;;13.98;;
23474;SDS011;11910;52.086;21.066;2023-12-28T05:15:20;27.90;;;13.77;;
23474;SDS011;11910;52.086;21.066;2023-12-28T05:17:46;26.52;;;13.68;;
23474;SDS011;11910;52.086;21.066;2023-12-28T05:20:12;27.50;;;13.70;;
23474;SDS011;11910;52.086;21.066;2023-12-28T05:22:37;30.45;;;13.32;;
23474;SDS011;11910;52.086;21.066;2023-12-28T05:25:03;28.92;;;13.60;;
23474;SDS011;11910;52.086;21.066;2023-12-28T05:27:29;26.70;;;13.45;;
23474;SDS011;11910;52.086;21.066;2023-12-28T05:29:54;25.55;;;13.25;;
23474;SDS011;11910;52.086;21.066;2023-12-28T05:32:20;26.05;;;12.75;;
23474;SDS011;11910;52.086;21.066;2023-12-28T05:34:45;26.52;;;13.93;;
23474;SDS011;11910;52.086;21.066;2023-12-28T05:37:12;26.77;;;13.82;;
23474;SDS011;11910;52.086;21.066;2023-12-28T05:39:38;26.52;;;12.88;;
23474;SDS011;11910;52.086;21.066;2023-12-28T05:42:03;27.27;;;12.55;;
23474;SDS011;11910;52.086;21.066;2023-12-28T05:44:29;29.13;;;13.60;;
23474;SDS011;11910;52.086;21.066;2023-12-28T05:46:54;26.25;;;12.63;;
23474;SDS011;11910;52.086;21.066;2023-12-28T05:49:21;25.65;;;12.68;;
23474;SDS011;11910;52.086;21.066;2023-12-28T05:51:47;23.58;;;12.25;;
23474;SDS011;11910;52.086;21.066;2023-12-28T05:54:12;22.05;;;12.25;;
23474;SDS011;11910;52.086;21.066;2023-12-28T05:56:38;23.75;;;12.32;;
23474;SDS011;11910;52.086;21.066;2023-12-28T05:59:03;23.90;;;12.73;;
23474;SDS011;11910;52.086;21.066;2023-12-28T06:01:29;24.70;;;13.13;;
23474;SDS011;11910;52.086;21.066;2023-12-28T06:03:54;23.45;;;12.43;;
23474;SDS011;11910;52.086;21.066;2023-12-28T06:06:20;26.63;;;12.70;;
23474;SDS011;11910;52.086;21.066;2023-12-28T06:08:46;25.20;;;13.32;;
23474;SDS011;11910;52.086;21.066;2023-12-28T06:11:12;29.33;;;14.60;;
23474;SDS011;11910;52.086;21.066;2023-12-28T06:13:37;25.38;;;13.63;;
23474;SDS011;11910;52.086;21.066;2023-12-28T06:16:03;22.77;;;12.23;;
23474;SDS011;11910;52.086;21.066;2023-12-28T06:18:29;22.63;;;12.07;;
23474;SDS011;11910;52.086;21.066;2023-12-28T06:20:54;23.92;;;12.70;;
23474;SDS011;11910;52.086;21.066;2023-12-28T06:23:20;24.88;;;12.25;;
23474;SDS011;11910;52.086;21.066;2023-12-28T06:25:46;23.60;;;12.43;;
23474;SDS011;11910;52.086;21.066;2023-12-28T06:28:11;23.25;;;12.45;;
23474;SDS011;11910;52.086;21.066;2023-12-28T06:30:37;24.17;;;12.18;;
23474;SDS011;11910;52.086;21.066;2023-12-28T06:33:04;23.15;;;12.40;;
23474;SDS011;11910;52.086;21.066;2023-12-28T06:35:30;23.95;;;12.30;;
23474;SDS011;11910;52.086;21.066;2023-12-28T06:37:56;20.80;;;11.13;;
23474;SDS011;11910;52.086;21.066;2023-12-28T06:40:21;24.17;;;12.77;;
23474;SDS011;11910;52.086;21.066;2023-12-28T06:42:47;22.98;;;11.93;;
23474;SDS011;11910;52.086;21.066;2023-12-28T06:45:12;24.52;;;12.45;;
23474;SDS011;11910;52.086;21.066;2023-12-28T06:47:38;21.73;;;12.30;;
23474;SDS011;11910;52.086;21.066;2023-12-28T06:50:04;24.80;;;12.93;;
23474;SDS011;11910;52.086;21.066;2023-12-28T06:52:30;23.17;;;12.30;;
23474;SDS011;11910;52.086;21.066;2023-12-28T06:54:56;30.00;;;15.93;;
23474;SDS011;11910;52.086;21.066;2023-12-28T06:57:22;25.88;;;12.30;;
23474;SDS011;11910;52.086;21.066;2023-12-28T06:59:47;21.50;;;13.23;;
23474;SDS011;11910;52.086;21.066;2023-12-28T07:02:13;25.45;;;14.68;;
23474;SDS011;11910;52.086;21.066;2023-12-28T07:04:39;30.52;;;17.55;;
23474;SDS011;11910;52.086;21.066;2023-12-28T07:07:04;28.98;;;17.30;;
23474;SDS011;11910;52.086;21.066;2023-12-28T07:09:30;27.33;;;17.45;;
23474;SDS011;11910;52.086;21.066;2023-12-28T07:11:55;24.10;;;14.02;;
23474;SDS011;11910;52.086;21.066;2023-12-28T07:14:21;26.55;;;14.88;;
23474;SDS011;11910;52.086;21.066;2023-12-28T07:16:46;26.08;;;14.77;;
23474;SDS011;11910;52.086;21.066;2023-12-28T07:19:12;26.30;;;15.07;;
23474;SDS011;11910;52.086;21.066;2023-12-28T07:21:37;28.98;;;16.08;;
23474;SDS011;11910;52.086;21.066;2023-12-28T07:24:03;26.50;;;15.10;;
23474;SDS011;11910;52.086;21.066;2023-12-28T07:26:29;26.20;;;14.57;;
23474;SDS011;11910;52.086;21.066;2023-12-28T07:28:55;22.27;;;12.05;;
23474;SDS011;11910;52.086;21.066;2023-12-28T07:31:24;22.60;;;12.55;;
23474;SDS011;11910;52.086;21.066;2023-12-28T07:33:50;19.38;;;11.90;;
23474;SDS011;11910;52.086;21.066;2023-12-28T07:36:16;21.80;;;11.93;;
23474;SDS011;11910;52.086;21.066;2023-12-28T07:38:42;21.00;;;12.68;;
23474;SDS011;11910;52.086;21.066;2023-12-28T07:41:08;20.85;;;11.52;;
23474;SDS011;11910;52.086;21.066;2023-12-28T07:43:34;22.08;;;12.02;;
23474;SDS011;11910;52.086;21.066;2023-12-28T07:46:01;21.38;;;11.68;;
23474;SDS011;11910;52.086;21.066;2023-12-28T07:48:26;19.52;;;11.75;;
23474;SDS011;11910;52.086;21.066;2023-12-28T07:50:55;21.60;;;12.00;;
23474;SDS011;11910;52.086;21.066;2023-12-28T07:53:20;19.70;;;11.40;;
23474;SDS011;11910;52.086;21.066;2023-12-28T07:55:46;19.83;;;11.85;;
23474;SDS011;11910;52.086;21.066;2023-12-28T07:58:12;21.80;;;11.60;;
23474;SDS011;11910;52.086;21.066;2023-12-28T08:00:37;23.02;;;13.25;;
23474;SDS011;11910;52.086;21.066;2023-12-28T08:03:03;21.13;;;12.50;;
23474;SDS011;11910;52.086;21.066;2023-12-28T08:05:29;21.17;;;11.98;;
23474;SDS011;11910;52.086;21.066;2023-12-28T08:07:54;22.35;;;12.63;;
23474;SDS011;11910;52.086;21.066;2023-12-28T08:10:20;21.35;;;13.40;;
23474;SDS011;11910;52.086;21.066;2023-12-28T08:12:46;18.30;;;11.63;;
23474;SDS011;11910;52.086;21.066;2023-12-28T08:15:11;22.13;;;12.73;;
23474;SDS011;11910;52.086;21.066;2023-12-28T08:17:37;21.75;;;12.48;;
23474;SDS011;11910;52.086;21.066;2023-12-28T08:20:03;22.67;;;12.32;;
23474;SDS011;11910;52.086;21.066;2023-12-28T08:22:29;19.88;;;11.90;;
23474;SDS011;11910;52.086;21.066;2023-12-28T08:24:56;20.65;;;12.20;;
23474;SDS011;11910;52.086;21.066;2023-12-28T08:27:22;22.80;;;12.02;;
23474;SDS011;11910;52.086;21.066;2023-12-28T08:29:48;20.00;;;11.77;;
23474;SDS011;11910;52.086;21.066;2023-12-28T08:32:14;19.73;;;11.93;;
23474;SDS011;11910;52.086;21.066;2023-12-28T08:34:40;20.73;;;11.23;;
23474;SDS011;11910;52.086;21.066;2023-12-28T08:37:05;18.70;;;11.77;;
23474;SDS011;11910;52.086;21.066;2023-12-28T08:39:31;20.58;;;11.77;;
23474;SDS011;11910;52.086;21.066;2023-12-28T08:41:57;23.58;;;12.65;;
23474;SDS011;11910;52.086;21.066;2023-12-28T08:44:23;18.15;;;11.57;;
23474;SDS011;11910;52.086;21.066;2023-12-28T08:46:49;19.60;;;12.57;;
23474;SDS011;11910;52.086;21.066;2023-12-28T08:49:15;19.80;;;12.23;;
23474;SDS011;11910;52.086;21.066;2023-12-28T08:51:41;20.20;;;12.40;;
23474;SDS011;11910;52.086;21.066;2023-12-28T08:54:07;21.38;;;11.90;;
23474;SDS011;11910;52.086;21.066;2023-12-28T08:56:34;19.40;;;11.52;;
23474;SDS011;11910;52.086;21.066;2023-12-28T08:59:00;19.70;;;11.35;;
23474;SDS011;11910;52.086;21.066;2023-12-28T09:01:26;21.00;;;11.68;;
23474;SDS011;11910;52.086;21.066;2023-12-28T09:03:52;19.15;;;11.55;;
23474;SDS011;11910;52.086;21.066;2023-12-28T09:06:19;19.77;;;11.27;;
23474;SDS011;11910;52.086;21.066;2023-12-28T09:08:47;20.10;;;11.43;;
23474;SDS011;11910;52.086;21.066;2023-12-28T09:11:15;16.88;;;11.13;;
23474;SDS011;11910;52.086;21.066;2023-12-28T09:13:41;18.40;;;11.32;;
23474;SDS011;11910;52.086;21.066;2023-12-28T09:16:07;20.92;;;11.25;;
23474;SDS011;11910;52.086;21.066;2023-12-28T09:18:35;19.00;;;10.93;;
23474;SDS011;11910;52.086;21.066;2023-12-28T09:21:04;18.23;;;11.00;;
23474;SDS011;11910;52.086;21.066;2023-12-28T09:23:30;18.30;;;11.15;;
23474;SDS011;11910;52.086;21.066;2023-12-28T09:25:57;17.88;;;11.23;;
23474;SDS011;11910;52.086;21.066;2023-12-28T09:28:24;16.75;;;11.00;;
23474;SDS011;11910;52.086;21.066;2023-12-28T09:30:50;18.38;;;10.90;;
23474;SDS011;11910;52.086;21.066;2023-12-28T09:33:15;16.70;;;11.20;;
23474;SDS011;11910;52.086;21.066;2023-12-28T09:35:41;15.50;;;10.77;;
23474;SDS011;11910;52.086;21.066;2023-12-28T09:38:07;18.00;;;10.77;;
23474;SDS011;11910;52.086;21.066;2023-12-28T09:40:33;19.25;;;10.75;;
23474;SDS011;11910;52.086;21.066;2023-12-28T09:45:47;16.52;;;9.88;;
23474;SDS011;11910;52.086;21.066;2023-12-28T09:48:17;17.23;;;9.90;;
23474;SDS011;11910;52.086;21.066;2023-12-28T09:50:44;17.55;;;11.00;;
23474;SDS011;11910;52.086;21.066;2023-12-28T09:53:22;17.30;;;10.50;;
23474;SDS011;11910;52.086;21.066;2023-12-28T09:55:48;16.55;;;10.35;;
23474;SDS011;11910;52.086;21.066;2023-12-28T09:58:16;16.42;;;10.15;;
23474;SDS011;11910;52.086;21.066;2023-12-28T10:00:43;18.10;;;10.45;;
23474;SDS011;11910;52.086;21.066;2023-12-28T10:03:09;17.55;;;11.02;;
23474;SDS011;11910;52.086;21.066;2023-12-28T10:05:40;19.08;;;12.25;;
23474;SDS011;11910;52.086;21.066;2023-12-28T10:08:07;15.93;;;10.60;;
23474;SDS011;11910;52.086;21.066;2023-12-28T10:10:33;15.18;;;10.60;;
23474;SDS011;11910;52.086;21.066;2023-12-28T10:12:59;18.85;;;11.13;;
23474;SDS011;11910;52.086;21.066;2023-12-28T10:15:25;16.73;;;10.45;;
23474;SDS011;11910;52.086;21.066;2023-12-28T10:17:53;21.98;;;14.68;;
23474;SDS011;11910;52.086;21.066;2023-12-28T10:20:19;42.03;;;24.70;;
23474;SDS011;11910;52.086;21.066;2023-12-28T10:22:45;29.25;;;18.13;;
23474;SDS011;11910;52.086;21.066;2023-12-28T10:25:11;18.63;;;12.10;;
23474;SDS011;11910;52.086;21.066;2023-12-28T10:27:41;16.52;;;9.00;;
23474;SDS011;11910;52.086;21.066;2023-12-28T10:30:07;15.02;;;9.20;;
23474;SDS011;11910;52.086;21.066;2023-12-28T10:32:34;17.38;;;9.68;;
23474;SDS011;11910;52.086;21.066;2023-12-28T10:34:59;10.73;;;6.35;;
23474;SDS011;11910;52.086;21.066;2023-12-28T10:37:25;11.40;;;6.57;;
23474;SDS011;11910;52.086;21.066;2023-12-28T10:39:53;12.30;;;6.70;;
23474;SDS011;11910;52.086;21.066;2023-12-28T10:42:44;11.40;;;7.20;;
23474;SDS011;11910;52.086;21.066;2023-12-28T10:45:24;12.10;;;7.10;;
23474;SDS011;11910;52.086;21.066;2023-12-28T10:47:56;11.50;;;7.15;;
23474;SDS011;11910;52.086;21.066;2023-12-28T10:50:30;12.68;;;7.50;;
23474;SDS011;11910;52.086;21.066;2023-12-28T10:53:04;9.82;;;6.07;;
23474;SDS011;11910;52.086;21.066;2023-12-28T10:58:12;12.43;;;7.00;;
23474;SDS011;11910;52.086;21.066;2023-12-28T11:00:47;11.50;;;6.80;;
23474;SDS011;11910;52.086;21.066;2023-12-28T11:03:26;11.32;;;6.85;;
23474;SDS011;11910;52.086;21.066;2023-12-28T11:05:55;11.77;;;6.75;;
23474;SDS011;11910;52.086;21.066;2023-12-28T11:08:21;12.38;;;6.47;;
23474;SDS011;11910;52.086;21.066;2023-12-28T11:10:47;9.80;;;6.22;;
23474;SDS011;11910;52.086;21.066;2023-12-28T11:13:19;11.52;;;6.20;;
23474;SDS011;11910;52.086;21.066;2023-12-28T11:15:46;8.63;;;5.70;;
23474;SDS011;11910;52.086;21.066;2023-12-28T11:18:13;11.75;;;7.00;;
23474;SDS011;11910;52.086;21.066;2023-12-28T11:20:40;8.48;;;5.78;;
23474;SDS011;11910;52.086;21.066;2023-12-28T11:23:07;12.90;;;7.15;;
23474;SDS011;11910;52.086;21.066;2023-12-28T11:25:34;12.13;;;6.93;;
23474;SDS011;11910;52.086;21.066;2023-12-28T11:28:00;12.70;;;7.25;;
23474;SDS011;11910;52.086;21.066;2023-12-28T11:30:33;15.07;;;8.73;;
23474;SDS011;11910;52.086;21.066;2023-12-28T11:33:01;13.18;;;8.35;;
23474;SDS011;11910;52.086;21.066;2023-12-28T11:35:38;15.70;;;9.13;;
23474;SDS011;11910;52.086;21.066;2023-12-28T11:38:04;12.52;;;8.18;;
23474;SDS011;11910;52.086;21.066;2023-12-28T11:40:44;12.60;;;8.32;;
23474;SDS011;11910;52.086;21.066;2023-12-28T11:43:18;10.20;;;6.93;;
23474;SDS011;11910;52.086;21.066;2023-12-28T11:45:49;9.20;;;6.80;;
23474;SDS011;11910;52.086;21.066;2023-12-28T11:48:27;11.63;;;7.25;;
23474;SDS011;11910;52.086;21.066;2023-12-28T11:50:57;13.57;;;7.05;;
23474;SDS011;11910;52.086;21.066;2023-12-28T11:53:24;11.57;;;7.05;;
23474;SDS011;11910;52.086;21.066;2023-12-28T11:55:50;13.05;;;8.00;;
23474;SDS011;11910;52.086;21.066;2023-12-28T11:58:20;13.10;;;7.82;;
23474;SDS011;11910;52.086;21.066;2023-12-28T12:00:45;12.55;;;7.10;;
23474;SDS011;11910;52.086;21.066;2023-12-28T12:03:12;13.13;;;8.35;;
23474;SDS011;11910;52.086;21.066;2023-12-28T12:05:38;10.48;;;7.47;;
23474;SDS011;11910;52.086;21.066;2023-12-28T12:08:08;12.65;;;8.10;;
23474;SDS011;11910;52.086;21.066;2023-12-28T12:10:35;11.93;;;8.02;;
23474;SDS011;11910;52.086;21.066;2023-12-28T12:13:01;14.40;;;8.32;;
23474;SDS011;11910;52.086;21.066;2023-12-28T12:15:28;16.25;;;9.07;;
23474;SDS011;11910;52.086;21.066;2023-12-28T12:17:54;12.82;;;8.30;;
23474;SDS011;11910;52.086;21.066;2023-12-28T12:20:20;13.90;;;8.15;;
23474;SDS011;11910;52.086;21.066;2023-12-28T12:22:46;11.40;;;7.57;;
23474;SDS011;11910;52.086;21.066;2023-12-28T12:25:12;11.15;;;8.05;;
23474;SDS011;11910;52.086;21.066;2023-12-28T12:27:37;15.50;;;9.60;;
23474;SDS011;11910;52.086;21.066;2023-12-28T12:30:06;13.15;;;8.38;;
23474;SDS011;11910;52.086;21.066;2023-12-28T12:32:32;14.13;;;8.40;;
23474;SDS011;11910;52.086;21.066;2023-12-28T12:34:58;13.10;;;8.57;;
23474;SDS011;11910;52.086;21.066;2023-12-28T12:37:24;15.13;;;9.20;;
23474;SDS011;11910;52.086;21.066;2023-12-28T12:39:51;15.50;;;8.90;;
23474;SDS011;11910;52.086;21.066;2023-12-28T12:42:19;14.00;;;8.93;;
23474;SDS011;11910;52.086;21.066;2023-12-28T12:44:45;13.25;;;8.63;;
23474;SDS011;11910;52.086;21.066;2023-12-28T12:47:10;14.98;;;7.93;;
23474;SDS011;11910;52.086;21.066;2023-12-28T12:49:38;13.20;;;8.43;;
23474;SDS011;11910;52.086;21.066;2023-12-28T12:52:03;12.50;;;8.38;;
23474;SDS011;11910;52.086;21.066;2023-12-28T12:54:29;13.13;;;8.07;;
23474;SDS011;11910;52.086;21.066;2023-12-28T12:56:54;14.07;;;7.85;;
23474;SDS011;11910;52.086;21.066;2023-12-28T12:59:22;11.50;;;7.53;;
23474;SDS011;11910;52.086;21.066;2023-12-28T13:01:47;12.88;;;8.82;;
23474;SDS011;11910;52.086;21.066;2023-12-28T13:04:13;13.70;;;8.52;;
23474;SDS011;11910;52.086;21.066;2023-12-28T13:06:41;12.88;;;7.97;;
23474;SDS011;11910;52.086;21.066;2023-12-28T13:09:06;14.00;;;8.25;;
23474;SDS011;11910;52.086;21.066;2023-12-28T13:11:35;13.80;;;8.00;;
23474;SDS011;11910;52.086;21.066;2023-12-28T13:14:01;13.13;;;7.65;;
23474;SDS011;11910;52.086;21.066;2023-12-28T13:16:27;11.93;;;7.53;;
23474;SDS011;11910;52.086;21.066;2023-12-28T13:18:52;15.10;;;7.72;;
23474;SDS011;11910;52.086;21.066;2023-12-28T13:21:18;12.70;;;7.32;;
23474;SDS011;11910;52.086;21.066;2023-12-28T13:23:44;10.13;;;7.13;;
23474;SDS011;11910;52.086;21.066;2023-12-28T13:26:09;13.15;;;6.93;;
23474;SDS011;11910;52.086;21.066;2023-12-28T13:28:35;11.98;;;6.75;;
23474;SDS011;11910;52.086;21.066;2023-12-28T13:31:00;11.75;;;6.75;;
23474;SDS011;11910;52.086;21.066;2023-12-28T13:33:26;11.38;;;6.25;;
23474;SDS011;11910;52.086;21.066;2023-12-28T13:35:52;11.23;;;6.95;;
23474;SDS011;11910;52.086;21.066;2023-12-28T13:38:17;10.88;;;6.97;;
23474;SDS011;11910;52.086;21.066;2023-12-28T13:40:43;11.23;;;6.38;;
23474;SDS011;11910;52.086;21.066;2023-12-28T13:43:09;12.00;;;7.00;;
23474;SDS011;11910;52.086;21.066;2023-12-28T13:45:35;10.63;;;6.88;;
23474;SDS011;11910;52.086;21.066;2023-12-28T13:48:00;10.63;;;6.72;;
23474;SDS011;11910;52.086;21.066;2023-12-28T13:50:27;10.68;;;6.88;;
23474;SDS011;11910;52.086;21.066;2023-12-28T13:52:53;11.52;;;6.68;;
23474;SDS011;11910;52.086;21.066;2023-12-28T13:55:19;11.07;;;7.03;;
23474;SDS011;11910;52.086;21.066;2023-12-28T13:57:44;13.85;;;7.80;;
23474;SDS011;11910;52.086;21.066;2023-12-28T14:00:10;12.90;;;7.55;;
23474;SDS011;11910;52.086;21.066;2023-12-28T14:02:36;14.23;;;7.57;;
23474;SDS011;11910;52.086;21.066;2023-12-28T14:05:03;15.07;;;9.15;;
23474;SDS011;11910;52.086;21.066;2023-12-28T14:07:28;13.30;;;8.77;;
23474;SDS011;11910;52.086;21.066;2023-12-28T14:09:54;13.63;;;8.75;;
23474;SDS011;11910;52.086;21.066;2023-12-28T14:12:20;14.05;;;8.38;;
23474;SDS011;11910;52.086;21.066;2023-12-28T14:14:45;14.23;;;8.00;;
23474;SDS011;11910;52.086;21.066;2023-12-28T14:17:11;16.27;;;8.35;;